sensor_id;sensor_type;location;lat;lon;timestamp;P1;durP1;ratioP1;P2;durP2;ratioP2
20880;SDS011;10600;53.096;8.802;2023-08-24T00:00:16;10.52;;;5.72;;
20880;SDS011;10600;53.096;8.802;2023-08-24T00:01:18;19.15;;;6.32;;
20880;SDS011;10600;53.096;8.802;2023-08-24T00:02:19;12.15;;;5.65;;
20880;SDS011;10600;53.096;8.802;2023-08-24T00:03:20;11.82;;;6.45;;
20880;SDS011;10600;53.096;8.802;2023-08-24T00:04:24;12.00;;;6.05;;
20880;SDS011;10600;53.096;8.802;2023-08-24T00:05:25;12.90;;;6.25;;
20880;SDS011;10600;53.096;8.802;2023-08-24T00:06:26;11.18;;;5.18;;
20880;SDS011;10600;53.096;8.802;2023-08-24T00:07:27;12.00;;;6.10;;
20880;SDS011;10600;53.096;8.802;2023-08-24T00:08:28;13.48;;;6.22;;
20880;SDS011;10600;53.096;8.802;2023-08-24T00:09:29;12.38;;;5.60;;
20880;SDS011;10600;53.096;8.802;2023-08-24T00:10:30;11.80;;;6.68;;
20880;SDS011;10600;53.096;8.802;2023-08-24T00:11:32;13.65;;;5.47;;
20880;SDS011;10600;53.096;8.802;2023-08-24T00:12:33;10.82;;;6.00;;
20880;SDS011;10600;53.096;8.802;2023-08-24T00:13:35;12.52;;;6.78;;
20880;SDS011;10600;53.096;8.802;2023-08-24T00:14:36;13.48;;;6.10;;
20880;SDS011;10600;53.096;8.802;2023-08-24T00:15:37;9.23;;;6.20;;
20880;SDS011;10600;53.096;8.802;2023-08-24T00:16:39;10.77;;;6.43;;
20880;SDS011;10600;53.096;8.802;2023-08-24T00:17:40;11.00;;;6.15;;
20880;SDS011;10600;53.096;8.802;2023-08-24T00:18:42;11.73;;;6.10;;
20880;SDS011;10600;53.096;8.802;2023-08-24T00:19:43;13.02;;;5.80;;
20880;SDS011;10600;53.096;8.802;2023-08-24T00:20:46;12.27;;;6.10;;
20880;SDS011;10600;53.096;8.802;2023-08-24T00:21:47;12.88;;;5.80;;
20880;SDS011;10600;53.096;8.802;2023-08-24T00:22:49;13.55;;;6.20;;
20880;SDS011;10600;53.096;8.802;2023-08-24T00:23:50;11.68;;;5.93;;
20880;SDS011;10600;53.096;8.802;2023-08-24T00:24:51;11.43;;;6.18;;
20880;SDS011;10600;53.096;8.802;2023-08-24T00:25:52;10.32;;;5.90;;
20880;SDS011;10600;53.096;8.802;2023-08-24T00:26:53;10.55;;;5.93;;
20880;SDS011;10600;53.096;8.802;2023-08-24T00:27:54;12.77;;;6.90;;
20880;SDS011;10600;53.096;8.802;2023-08-24T00:28:56;14.82;;;6.53;;
20880;SDS011;10600;53.096;8.802;2023-08-24T00:29:57;17.20;;;6.90;;
20880;SDS011;10600;53.096;8.802;2023-08-24T00:30:58;11.63;;;6.00;;
20880;SDS011;10600;53.096;8.802;2023-08-24T00:31:59;13.13;;;6.53;;
20880;SDS011;10600;53.096;8.802;2023-08-24T00:33:00;19.60;;;6.38;;
20880;SDS011;10600;53.096;8.802;2023-08-24T00:34:01;12.88;;;6.30;;
20880;SDS011;10600;53.096;8.802;2023-08-24T00:35:02;12.07;;;6.40;;
20880;SDS011;10600;53.096;8.802;2023-08-24T00:36:05;13.63;;;6.57;;
20880;SDS011;10600;53.096;8.802;2023-08-24T00:37:06;11.65;;;7.25;;
20880;SDS011;10600;53.096;8.802;2023-08-24T00:38:07;11.30;;;7.00;;
20880;SDS011;10600;53.096;8.802;2023-08-24T00:39:08;14.07;;;6.65;;
20880;SDS011;10600;53.096;8.802;2023-08-24T00:40:10;15.48;;;7.35;;
20880;SDS011;10600;53.096;8.802;2023-08-24T00:41:12;12.07;;;6.88;;
20880;SDS011;10600;53.096;8.802;2023-08-24T00:42:13;15.90;;;6.47;;
20880;SDS011;10600;53.096;8.802;2023-08-24T00:43:15;11.88;;;6.47;;
20880;SDS011;10600;53.096;8.802;2023-08-24T00:44:16;13.00;;;7.38;;
20880;SDS011;10600;53.096;8.802;2023-08-24T00:45:17;13.07;;;6.72;;
20880;SDS011;10600;53.096;8.802;2023-08-24T00:46:18;10.55;;;6.53;;
20880;SDS011;10600;53.096;8.802;2023-08-24T00:47:19;13.60;;;6.70;;
20880;SDS011;10600;53.096;8.802;2023-08-24T00:48:20;11.13;;;6.63;;
20880;SDS011;10600;53.096;8.802;2023-08-24T00:49:25;12.88;;;7.05;;
20880;SDS011;10600;53.096;8.802;2023-08-24T00:50:27;12.80;;;7.03;;
20880;SDS011;10600;53.096;8.802;2023-08-24T00:51:28;9.95;;;6.93;;
20880;SDS011;10600;53.096;8.802;2023-08-24T00:52:30;11.93;;;6.15;;
20880;SDS011;10600;53.096;8.802;2023-08-24T00:53:32;14.35;;;6.30;;
20880;SDS011;10600;53.096;8.802;2023-08-24T00:54:33;11.32;;;6.78;;
20880;SDS011;10600;53.096;8.802;2023-08-24T00:55:34;13.10;;;6.88;;
20880;SDS011;10600;53.096;8.802;2023-08-24T00:56:35;10.88;;;6.95;;
20880;SDS011;10600;53.096;8.802;2023-08-24T00:57:37;12.40;;;7.22;;
20880;SDS011;10600;53.096;8.802;2023-08-24T00:58:38;13.52;;;7.00;;
20880;SDS011;10600;53.096;8.802;2023-08-24T00:59:39;14.57;;;7.82;;
20880;SDS011;10600;53.096;8.802;2023-08-24T01:00:40;10.07;;;6.85;;
20880;SDS011;10600;53.096;8.802;2023-08-24T01:01:41;12.55;;;7.03;;
20880;SDS011;10600;53.096;8.802;2023-08-24T01:02:45;13.45;;;6.97;;
20880;SDS011;10600;53.096;8.802;2023-08-24T01:03:46;13.27;;;6.97;;
20880;SDS011;10600;53.096;8.802;2023-08-24T01:04:47;10.90;;;6.55;;
20880;SDS011;10600;53.096;8.802;2023-08-24T01:05:48;21.02;;;7.95;;
20880;SDS011;10600;53.096;8.802;2023-08-24T01:06:50;14.88;;;7.28;;
20880;SDS011;10600;53.096;8.802;2023-08-24T01:07:52;11.35;;;7.28;;
20880;SDS011;10600;53.096;8.802;2023-08-24T01:08:53;15.77;;;7.88;;
20880;SDS011;10600;53.096;8.802;2023-08-24T01:09:54;8.85;;;6.82;;
20880;SDS011;10600;53.096;8.802;2023-08-24T01:10:59;12.10;;;7.30;;
20880;SDS011;10600;53.096;8.802;2023-08-24T01:16:16;11.32;;;7.18;;
20880;SDS011;10600;53.096;8.802;2023-08-24T01:17:21;13.75;;;7.50;;
20880;SDS011;10600;53.096;8.802;2023-08-24T01:18:23;13.13;;;7.35;;
20880;SDS011;10600;53.096;8.802;2023-08-24T01:20:27;12.55;;;7.57;;
20880;SDS011;10600;53.096;8.802;2023-08-24T01:21:28;16.00;;;7.60;;
20880;SDS011;10600;53.096;8.802;2023-08-24T01:22:34;12.10;;;7.25;;
20880;SDS011;10600;53.096;8.802;2023-08-24T01:24:45;12.52;;;7.28;;
20880;SDS011;10600;53.096;8.802;2023-08-24T01:25:51;14.38;;;7.60;;
20880;SDS011;10600;53.096;8.802;2023-08-24T01:26:53;9.38;;;7.03;;
20880;SDS011;10600;53.096;8.802;2023-08-24T01:27:55;14.60;;;8.40;;
20880;SDS011;10600;53.096;8.802;2023-08-24T01:28:56;12.68;;;7.43;;
20880;SDS011;10600;53.096;8.802;2023-08-24T01:29:57;10.90;;;7.72;;
20880;SDS011;10600;53.096;8.802;2023-08-24T01:30:59;11.13;;;7.13;;
20880;SDS011;10600;53.096;8.802;2023-08-24T01:32:00;15.38;;;7.00;;
20880;SDS011;10600;53.096;8.802;2023-08-24T01:33:04;11.98;;;7.35;;
20880;SDS011;10600;53.096;8.802;2023-08-24T01:34:06;15.05;;;7.35;;
20880;SDS011;10600;53.096;8.802;2023-08-24T01:35:08;12.85;;;7.82;;
20880;SDS011;10600;53.096;8.802;2023-08-24T01:36:09;17.08;;;8.20;;
20880;SDS011;10600;53.096;8.802;2023-08-24T01:37:11;12.55;;;7.30;;
20880;SDS011;10600;53.096;8.802;2023-08-24T01:38:13;17.08;;;8.20;;
20880;SDS011;10600;53.096;8.802;2023-08-24T01:39:19;15.05;;;7.75;;
20880;SDS011;10600;53.096;8.802;2023-08-24T01:40:56;13.75;;;7.57;;
20880;SDS011;10600;53.096;8.802;2023-08-24T01:41:49;13.30;;;8.27;;
20880;SDS011;10600;53.096;8.802;2023-08-24T01:43:00;14.50;;;7.55;;
20880;SDS011;10600;53.096;8.802;2023-08-24T01:44:06;17.42;;;8.43;;
20880;SDS011;10600;53.096;8.802;2023-08-24T01:45:07;15.88;;;8.57;;
20880;SDS011;10600;53.096;8.802;2023-08-24T01:46:09;13.68;;;8.00;;
20880;SDS011;10600;53.096;8.802;2023-08-24T01:47:12;12.73;;;7.72;;
20880;SDS011;10600;53.096;8.802;2023-08-24T01:48:13;13.48;;;8.30;;
20880;SDS011;10600;53.096;8.802;2023-08-24T01:49:15;11.38;;;7.60;;
20880;SDS011;10600;53.096;8.802;2023-08-24T01:50:17;16.45;;;8.60;;
20880;SDS011;10600;53.096;8.802;2023-08-24T01:51:18;13.27;;;8.15;;
20880;SDS011;10600;53.096;8.802;2023-08-24T01:52:20;12.82;;;8.00;;
20880;SDS011;10600;53.096;8.802;2023-08-24T01:53:21;16.40;;;7.90;;
20880;SDS011;10600;53.096;8.802;2023-08-24T01:54:23;15.93;;;8.13;;
20880;SDS011;10600;53.096;8.802;2023-08-24T01:55:25;14.30;;;8.15;;
20880;SDS011;10600;53.096;8.802;2023-08-24T01:56:26;14.25;;;7.45;;
20880;SDS011;10600;53.096;8.802;2023-08-24T01:57:27;14.27;;;8.00;;
20880;SDS011;10600;53.096;8.802;2023-08-24T01:58:28;15.55;;;8.30;;
20880;SDS011;10600;53.096;8.802;2023-08-24T01:59:29;14.57;;;8.95;;
20880;SDS011;10600;53.096;8.802;2023-08-24T02:00:30;12.73;;;8.43;;
20880;SDS011;10600;53.096;8.802;2023-08-24T02:01:31;12.43;;;7.90;;
20880;SDS011;10600;53.096;8.802;2023-08-24T02:02:34;16.88;;;8.15;;
20880;SDS011;10600;53.096;8.802;2023-08-24T02:03:35;13.57;;;9.13;;
20880;SDS011;10600;53.096;8.802;2023-08-24T02:04:38;16.38;;;9.88;;
20880;SDS011;10600;53.096;8.802;2023-08-24T02:05:39;14.52;;;9.73;;
20880;SDS011;10600;53.096;8.802;2023-08-24T02:06:40;14.93;;;9.02;;
20880;SDS011;10600;53.096;8.802;2023-08-24T02:07:41;16.65;;;9.35;;
20880;SDS011;10600;53.096;8.802;2023-08-24T02:08:42;18.13;;;10.05;;
20880;SDS011;10600;53.096;8.802;2023-08-24T02:09:44;14.38;;;9.35;;
20880;SDS011;10600;53.096;8.802;2023-08-24T02:10:45;17.55;;;9.70;;
20880;SDS011;10600;53.096;8.802;2023-08-24T02:11:46;14.82;;;9.70;;
20880;SDS011;10600;53.096;8.802;2023-08-24T02:12:47;16.85;;;9.77;;
20880;SDS011;10600;53.096;8.802;2023-08-24T02:13:48;21.60;;;10.68;;
20880;SDS011;10600;53.096;8.802;2023-08-24T02:14:50;17.67;;;10.68;;
20880;SDS011;10600;53.096;8.802;2023-08-24T02:15:51;14.10;;;9.20;;
20880;SDS011;10600;53.096;8.802;2023-08-24T02:17:01;15.07;;;10.80;;
20880;SDS011;10600;53.096;8.802;2023-08-24T02:18:03;16.77;;;10.45;;
20880;SDS011;10600;53.096;8.802;2023-08-24T02:19:04;21.15;;;10.80;;
20880;SDS011;10600;53.096;8.802;2023-08-24T02:20:05;18.05;;;10.63;;
20880;SDS011;10600;53.096;8.802;2023-08-24T02:21:09;15.40;;;9.93;;
20880;SDS011;10600;53.096;8.802;2023-08-24T02:22:11;16.17;;;10.68;;
20880;SDS011;10600;53.096;8.802;2023-08-24T02:23:12;15.48;;;10.23;;
20880;SDS011;10600;53.096;8.802;2023-08-24T02:24:13;12.60;;;9.57;;
20880;SDS011;10600;53.096;8.802;2023-08-24T02:25:15;20.15;;;11.98;;
20880;SDS011;10600;53.096;8.802;2023-08-24T02:26:16;17.95;;;11.68;;
20880;SDS011;10600;53.096;8.802;2023-08-24T02:27:17;28.30;;;12.25;;
20880;SDS011;10600;53.096;8.802;2023-08-24T02:28:18;19.02;;;11.75;;
20880;SDS011;10600;53.096;8.802;2023-08-24T02:29:19;25.65;;;12.65;;
20880;SDS011;10600;53.096;8.802;2023-08-24T02:30:20;18.33;;;11.90;;
20880;SDS011;10600;53.096;8.802;2023-08-24T02:31:21;17.83;;;11.65;;
20880;SDS011;10600;53.096;8.802;2023-08-24T02:32:22;20.33;;;11.90;;
20880;SDS011;10600;53.096;8.802;2023-08-24T02:33:23;21.20;;;12.40;;
20880;SDS011;10600;53.096;8.802;2023-08-24T02:34:24;18.23;;;11.32;;
20880;SDS011;10600;53.096;8.802;2023-08-24T02:35:25;17.92;;;12.13;;
20880;SDS011;10600;53.096;8.802;2023-08-24T02:36:26;23.15;;;13.02;;
20880;SDS011;10600;53.096;8.802;2023-08-24T02:37:28;16.75;;;11.00;;
20880;SDS011;10600;53.096;8.802;2023-08-24T02:38:29;22.10;;;12.52;;
20880;SDS011;10600;53.096;8.802;2023-08-24T02:39:30;22.30;;;12.20;;
20880;SDS011;10600;53.096;8.802;2023-08-24T02:40:31;17.77;;;11.77;;
20880;SDS011;10600;53.096;8.802;2023-08-24T02:41:33;23.27;;;12.93;;
20880;SDS011;10600;53.096;8.802;2023-08-24T02:42:34;17.27;;;11.68;;
20880;SDS011;10600;53.096;8.802;2023-08-24T02:43:35;19.67;;;11.93;;
20880;SDS011;10600;53.096;8.802;2023-08-24T02:44:36;18.48;;;12.38;;
20880;SDS011;10600;53.096;8.802;2023-08-24T02:45:37;18.27;;;12.35;;
20880;SDS011;10600;53.096;8.802;2023-08-24T02:46:38;21.95;;;13.00;;
20880;SDS011;10600;53.096;8.802;2023-08-24T02:47:39;23.00;;;13.07;;
20880;SDS011;10600;53.096;8.802;2023-08-24T02:48:40;20.98;;;11.90;;
20880;SDS011;10600;53.096;8.802;2023-08-24T02:49:41;22.50;;;13.02;;
20880;SDS011;10600;53.096;8.802;2023-08-24T02:50:45;23.60;;;12.95;;
20880;SDS011;10600;53.096;8.802;2023-08-24T02:51:47;18.13;;;11.80;;
20880;SDS011;10600;53.096;8.802;2023-08-24T02:52:48;24.15;;;13.10;;
20880;SDS011;10600;53.096;8.802;2023-08-24T02:53:51;15.57;;;11.43;;
20880;SDS011;10600;53.096;8.802;2023-08-24T02:54:52;25.55;;;13.18;;
20880;SDS011;10600;53.096;8.802;2023-08-24T02:55:53;21.95;;;12.25;;
20880;SDS011;10600;53.096;8.802;2023-08-24T02:56:54;19.85;;;12.60;;
20880;SDS011;10600;53.096;8.802;2023-08-24T02:57:55;22.55;;;12.48;;
20880;SDS011;10600;53.096;8.802;2023-08-24T02:58:56;19.52;;;12.10;;
20880;SDS011;10600;53.096;8.802;2023-08-24T02:59:57;20.85;;;12.05;;
20880;SDS011;10600;53.096;8.802;2023-08-24T03:00:58;19.48;;;12.95;;
20880;SDS011;10600;53.096;8.802;2023-08-24T03:01:59;20.25;;;12.07;;
20880;SDS011;10600;53.096;8.802;2023-08-24T03:03:00;22.17;;;12.60;;
20880;SDS011;10600;53.096;8.802;2023-08-24T03:04:01;19.80;;;11.70;;
20880;SDS011;10600;53.096;8.802;2023-08-24T03:05:04;18.83;;;11.98;;
20880;SDS011;10600;53.096;8.802;2023-08-24T03:06:06;18.88;;;12.82;;
20880;SDS011;10600;53.096;8.802;2023-08-24T03:07:07;18.23;;;12.02;;
20880;SDS011;10600;53.096;8.802;2023-08-24T03:08:10;22.88;;;11.65;;
20880;SDS011;10600;53.096;8.802;2023-08-24T03:09:11;19.35;;;11.68;;
20880;SDS011;10600;53.096;8.802;2023-08-24T03:10:12;22.05;;;11.93;;
20880;SDS011;10600;53.096;8.802;2023-08-24T03:11:13;17.38;;;11.75;;
20880;SDS011;10600;53.096;8.802;2023-08-24T03:12:14;18.70;;;12.50;;
20880;SDS011;10600;53.096;8.802;2023-08-24T03:13:16;21.17;;;12.98;;
20880;SDS011;10600;53.096;8.802;2023-08-24T03:14:17;25.27;;;13.45;;
20880;SDS011;10600;53.096;8.802;2023-08-24T03:15:18;22.55;;;13.48;;
20880;SDS011;10600;53.096;8.802;2023-08-24T03:16:21;21.42;;;13.35;;
20880;SDS011;10600;53.096;8.802;2023-08-24T03:17:22;22.02;;;13.73;;
20880;SDS011;10600;53.096;8.802;2023-08-24T03:18:23;18.08;;;12.93;;
20880;SDS011;10600;53.096;8.802;2023-08-24T03:19:24;19.25;;;13.45;;
20880;SDS011;10600;53.096;8.802;2023-08-24T03:20:25;17.80;;;13.48;;
20880;SDS011;10600;53.096;8.802;2023-08-24T03:21:26;20.23;;;13.43;;
20880;SDS011;10600;53.096;8.802;2023-08-24T03:22:27;24.73;;;13.65;;
20880;SDS011;10600;53.096;8.802;2023-08-24T03:23:28;20.13;;;13.77;;
20880;SDS011;10600;53.096;8.802;2023-08-24T03:24:30;26.85;;;14.10;;
20880;SDS011;10600;53.096;8.802;2023-08-24T03:25:31;22.50;;;14.35;;
20880;SDS011;10600;53.096;8.802;2023-08-24T03:26:32;24.58;;;14.05;;
20880;SDS011;10600;53.096;8.802;2023-08-24T03:27:33;20.65;;;14.02;;
20880;SDS011;10600;53.096;8.802;2023-08-24T03:28:34;28.17;;;15.45;;
20880;SDS011;10600;53.096;8.802;2023-08-24T03:29:35;24.52;;;14.82;;
20880;SDS011;10600;53.096;8.802;2023-08-24T03:30:37;20.60;;;14.07;;
20880;SDS011;10600;53.096;8.802;2023-08-24T03:31:38;26.75;;;15.27;;
20880;SDS011;10600;53.096;8.802;2023-08-24T03:32:40;23.38;;;15.45;;
20880;SDS011;10600;53.096;8.802;2023-08-24T03:33:41;22.75;;;15.75;;
20880;SDS011;10600;53.096;8.802;2023-08-24T03:34:42;27.23;;;15.38;;
20880;SDS011;10600;53.096;8.802;2023-08-24T03:35:43;24.05;;;15.00;;
20880;SDS011;10600;53.096;8.802;2023-08-24T03:36:44;24.75;;;15.90;;
20880;SDS011;10600;53.096;8.802;2023-08-24T03:37:45;37.80;;;15.75;;
20880;SDS011;10600;53.096;8.802;2023-08-24T03:38:46;21.83;;;14.98;;
20880;SDS011;10600;53.096;8.802;2023-08-24T03:39:47;25.83;;;14.90;;
20880;SDS011;10600;53.096;8.802;2023-08-24T03:40:48;24.48;;;15.48;;
20880;SDS011;10600;53.096;8.802;2023-08-24T03:41:49;28.48;;;16.88;;
20880;SDS011;10600;53.096;8.802;2023-08-24T03:42:50;21.55;;;15.55;;
20880;SDS011;10600;53.096;8.802;2023-08-24T03:43:53;23.48;;;15.35;;
20880;SDS011;10600;53.096;8.802;2023-08-24T03:44:54;23.67;;;15.63;;
20880;SDS011;10600;53.096;8.802;2023-08-24T03:45:55;29.25;;;16.13;;
20880;SDS011;10600;53.096;8.802;2023-08-24T03:46:56;25.45;;;15.65;;
20880;SDS011;10600;53.096;8.802;2023-08-24T03:47:57;29.20;;;15.38;;
20880;SDS011;10600;53.096;8.802;2023-08-24T03:48:58;23.80;;;15.77;;
20880;SDS011;10600;53.096;8.802;2023-08-24T03:49:59;25.50;;;15.75;;
20880;SDS011;10600;53.096;8.802;2023-08-24T03:51:00;27.00;;;15.18;;
20880;SDS011;10600;53.096;8.802;2023-08-24T03:52:01;25.05;;;15.75;;
20880;SDS011;10600;53.096;8.802;2023-08-24T03:53:03;25.58;;;14.68;;
20880;SDS011;10600;53.096;8.802;2023-08-24T03:54:04;27.85;;;15.63;;
20880;SDS011;10600;53.096;8.802;2023-08-24T03:55:06;21.77;;;14.70;;
20880;SDS011;10600;53.096;8.802;2023-08-24T03:56:07;21.33;;;14.27;;
20880;SDS011;10600;53.096;8.802;2023-08-24T03:57:08;23.17;;;15.10;;
20880;SDS011;10600;53.096;8.802;2023-08-24T03:58:09;22.75;;;14.30;;
20880;SDS011;10600;53.096;8.802;2023-08-24T03:59:10;23.77;;;14.70;;
20880;SDS011;10600;53.096;8.802;2023-08-24T04:00:11;20.38;;;13.07;;
20880;SDS011;10600;53.096;8.802;2023-08-24T04:01:14;21.33;;;13.15;;
20880;SDS011;10600;53.096;8.802;2023-08-24T04:02:15;24.85;;;13.77;;
20880;SDS011;10600;53.096;8.802;2023-08-24T04:03:16;22.92;;;13.60;;
20880;SDS011;10600;53.096;8.802;2023-08-24T04:04:17;20.95;;;13.70;;
20880;SDS011;10600;53.096;8.802;2023-08-24T04:05:18;19.60;;;13.32;;
20880;SDS011;10600;53.096;8.802;2023-08-24T04:06:19;23.83;;;13.20;;
20880;SDS011;10600;53.096;8.802;2023-08-24T04:07:20;26.65;;;13.98;;
20880;SDS011;10600;53.096;8.802;2023-08-24T04:08:21;21.75;;;14.57;;
20880;SDS011;10600;53.096;8.802;2023-08-24T04:09:22;24.02;;;12.68;;
20880;SDS011;10600;53.096;8.802;2023-08-24T04:10:23;22.90;;;12.75;;
20880;SDS011;10600;53.096;8.802;2023-08-24T04:11:25;24.48;;;14.00;;
20880;SDS011;10600;53.096;8.802;2023-08-24T04:12:26;20.95;;;13.73;;
20880;SDS011;10600;53.096;8.802;2023-08-24T04:13:27;22.13;;;13.10;;
20880;SDS011;10600;53.096;8.802;2023-08-24T04:14:29;22.17;;;13.50;;
20880;SDS011;10600;53.096;8.802;2023-08-24T04:15:29;24.17;;;13.57;;
20880;SDS011;10600;53.096;8.802;2023-08-24T04:16:31;22.05;;;13.52;;
20880;SDS011;10600;53.096;8.802;2023-08-24T04:17:32;20.38;;;12.93;;
20880;SDS011;10600;53.096;8.802;2023-08-24T04:18:33;19.88;;;13.30;;
20880;SDS011;10600;53.096;8.802;2023-08-24T04:19:37;20.80;;;13.38;;
20880;SDS011;10600;53.096;8.802;2023-08-24T04:20:38;19.92;;;13.43;;
20880;SDS011;10600;53.096;8.802;2023-08-24T04:21:39;23.98;;;13.48;;
20880;SDS011;10600;53.096;8.802;2023-08-24T04:22:40;23.55;;;14.52;;
20880;SDS011;10600;53.096;8.802;2023-08-24T04:23:41;20.98;;;13.60;;
20880;SDS011;10600;53.096;8.802;2023-08-24T04:24:45;23.30;;;14.07;;
20880;SDS011;10600;53.096;8.802;2023-08-24T04:25:46;22.38;;;12.57;;
20880;SDS011;10600;53.096;8.802;2023-08-24T04:26:48;22.70;;;12.52;;
20880;SDS011;10600;53.096;8.802;2023-08-24T04:27:52;18.15;;;11.63;;
20880;SDS011;10600;53.096;8.802;2023-08-24T04:28:53;22.30;;;14.77;;
20880;SDS011;10600;53.096;8.802;2023-08-24T04:29:54;32.72;;;19.95;;
20880;SDS011;10600;53.096;8.802;2023-08-24T04:30:56;22.95;;;15.65;;
20880;SDS011;10600;53.096;8.802;2023-08-24T04:31:57;26.58;;;14.38;;
20880;SDS011;10600;53.096;8.802;2023-08-24T04:32:58;24.48;;;13.32;;
20880;SDS011;10600;53.096;8.802;2023-08-24T04:33:59;18.48;;;12.50;;
20880;SDS011;10600;53.096;8.802;2023-08-24T04:35:00;20.83;;;11.77;;
20880;SDS011;10600;53.096;8.802;2023-08-24T04:36:02;17.90;;;11.35;;
20880;SDS011;10600;53.096;8.802;2023-08-24T04:37:05;17.73;;;11.68;;
20880;SDS011;10600;53.096;8.802;2023-08-24T04:38:06;19.70;;;11.52;;
20880;SDS011;10600;53.096;8.802;2023-08-24T04:39:09;16.52;;;11.38;;
20880;SDS011;10600;53.096;8.802;2023-08-24T04:40:10;21.25;;;11.65;;
20880;SDS011;10600;53.096;8.802;2023-08-24T04:41:11;18.30;;;10.75;;
20880;SDS011;10600;53.096;8.802;2023-08-24T04:42:12;19.27;;;11.65;;
20880;SDS011;10600;53.096;8.802;2023-08-24T04:43:13;19.05;;;11.50;;
20880;SDS011;10600;53.096;8.802;2023-08-24T04:44:14;15.05;;;10.38;;
20880;SDS011;10600;53.096;8.802;2023-08-24T04:45:16;13.98;;;10.00;;
20880;SDS011;10600;53.096;8.802;2023-08-24T04:46:17;19.13;;;10.63;;
20880;SDS011;10600;53.096;8.802;2023-08-24T04:47:18;18.65;;;11.68;;
20880;SDS011;10600;53.096;8.802;2023-08-24T04:48:19;17.90;;;11.43;;
20880;SDS011;10600;53.096;8.802;2023-08-24T04:49:21;22.55;;;11.73;;
20880;SDS011;10600;53.096;8.802;2023-08-24T04:50:22;21.10;;;12.10;;
20880;SDS011;10600;53.096;8.802;2023-08-24T04:51:23;18.83;;;12.60;;
20880;SDS011;10600;53.096;8.802;2023-08-24T04:52:24;20.48;;;11.90;;
20880;SDS011;10600;53.096;8.802;2023-08-24T04:53:25;18.55;;;11.60;;
20880;SDS011;10600;53.096;8.802;2023-08-24T04:54:27;19.33;;;11.35;;
20880;SDS011;10600;53.096;8.802;2023-08-24T04:55:31;19.08;;;11.82;;
20880;SDS011;10600;53.096;8.802;2023-08-24T04:56:32;21.77;;;12.77;;
20880;SDS011;10600;53.096;8.802;2023-08-24T04:57:34;15.02;;;10.50;;
20880;SDS011;10600;53.096;8.802;2023-08-24T04:58:35;13.85;;;10.52;;
20880;SDS011;10600;53.096;8.802;2023-08-24T04:59:36;15.07;;;10.55;;
20880;SDS011;10600;53.096;8.802;2023-08-24T05:00:37;16.17;;;11.07;;
20880;SDS011;10600;53.096;8.802;2023-08-24T05:01:38;21.90;;;11.85;;
20880;SDS011;10600;53.096;8.802;2023-08-24T05:02:39;18.02;;;11.48;;
20880;SDS011;10600;53.096;8.802;2023-08-24T05:03:40;18.15;;;10.88;;
20880;SDS011;10600;53.096;8.802;2023-08-24T05:04:41;19.23;;;10.85;;
20880;SDS011;10600;53.096;8.802;2023-08-24T05:05:44;27.23;;;11.98;;
20880;SDS011;10600;53.096;8.802;2023-08-24T05:06:45;15.40;;;10.50;;
20880;SDS011;10600;53.096;8.802;2023-08-24T05:07:46;17.23;;;10.65;;
20880;SDS011;10600;53.096;8.802;2023-08-24T05:08:47;18.13;;;10.07;;
20880;SDS011;10600;53.096;8.802;2023-08-24T05:09:48;21.50;;;12.35;;
20880;SDS011;10600;53.096;8.802;2023-08-24T05:10:49;31.75;;;17.88;;
20880;SDS011;10600;53.096;8.802;2023-08-24T05:11:50;24.08;;;15.23;;
20880;SDS011;10600;53.096;8.802;2023-08-24T05:12:51;20.42;;;12.20;;
20880;SDS011;10600;53.096;8.802;2023-08-24T05:13:52;19.02;;;11.30;;
20880;SDS011;10600;53.096;8.802;2023-08-24T05:14:53;27.10;;;16.27;;
20880;SDS011;10600;53.096;8.802;2023-08-24T05:15:54;37.20;;;21.80;;
20880;SDS011;10600;53.096;8.802;2023-08-24T05:16:55;28.02;;;16.08;;
20880;SDS011;10600;53.096;8.802;2023-08-24T05:17:56;18.13;;;11.27;;
20880;SDS011;10600;53.096;8.802;2023-08-24T05:18:59;16.60;;;10.32;;
20880;SDS011;10600;53.096;8.802;2023-08-24T05:20:00;18.98;;;11.45;;
20880;SDS011;10600;53.096;8.802;2023-08-24T05:21:02;17.55;;;10.63;;
20880;SDS011;10600;53.096;8.802;2023-08-24T05:22:03;17.60;;;9.95;;
20880;SDS011;10600;53.096;8.802;2023-08-24T05:23:04;14.38;;;9.57;;
20880;SDS011;10600;53.096;8.802;2023-08-24T05:24:05;15.88;;;10.55;;
20880;SDS011;10600;53.096;8.802;2023-08-24T05:25:06;15.57;;;10.65;;
20880;SDS011;10600;53.096;8.802;2023-08-24T05:26:07;20.30;;;10.82;;
20880;SDS011;10600;53.096;8.802;2023-08-24T05:27:08;17.08;;;10.25;;
20880;SDS011;10600;53.096;8.802;2023-08-24T05:28:10;21.35;;;10.63;;
20880;SDS011;10600;53.096;8.802;2023-08-24T05:29:11;13.18;;;8.93;;
20880;SDS011;10600;53.096;8.802;2023-08-24T05:30:12;15.00;;;9.23;;
20880;SDS011;10600;53.096;8.802;2023-08-24T05:31:13;16.30;;;8.68;;
20880;SDS011;10600;53.096;8.802;2023-08-24T05:32:14;14.20;;;9.15;;
20880;SDS011;10600;53.096;8.802;2023-08-24T05:33:15;16.73;;;9.63;;
20880;SDS011;10600;53.096;8.802;2023-08-24T05:34:16;14.52;;;9.02;;
20880;SDS011;10600;53.096;8.802;2023-08-24T05:35:17;14.75;;;9.55;;
20880;SDS011;10600;53.096;8.802;2023-08-24T05:36:18;16.55;;;9.52;;
20880;SDS011;10600;53.096;8.802;2023-08-24T05:37:19;15.50;;;9.10;;
20880;SDS011;10600;53.096;8.802;2023-08-24T05:38:20;11.88;;;8.25;;
20880;SDS011;10600;53.096;8.802;2023-08-24T05:39:21;17.02;;;9.50;;
20880;SDS011;10600;53.096;8.802;2023-08-24T05:40:22;15.30;;;8.90;;
20880;SDS011;10600;53.096;8.802;2023-08-24T05:41:23;13.93;;;8.27;;
20880;SDS011;10600;53.096;8.802;2023-08-24T05:42:24;14.88;;;9.35;;
20880;SDS011;10600;53.096;8.802;2023-08-24T05:43:25;20.17;;;9.38;;
20880;SDS011;10600;53.096;8.802;2023-08-24T05:44:26;15.02;;;8.48;;
20880;SDS011;10600;53.096;8.802;2023-08-24T05:45:27;15.50;;;8.75;;
20880;SDS011;10600;53.096;8.802;2023-08-24T05:46:28;15.02;;;9.75;;
20880;SDS011;10600;53.096;8.802;2023-08-24T05:47:50;15.98;;;8.95;;
20880;SDS011;10600;53.096;8.802;2023-08-24T05:48:51;14.35;;;9.27;;
20880;SDS011;10600;53.096;8.802;2023-08-24T05:49:52;13.93;;;8.82;;
20880;SDS011;10600;53.096;8.802;2023-08-24T05:50:53;14.45;;;9.10;;
20880;SDS011;10600;53.096;8.802;2023-08-24T05:51:54;16.42;;;9.77;;
20880;SDS011;10600;53.096;8.802;2023-08-24T05:52:55;14.10;;;9.35;;
20880;SDS011;10600;53.096;8.802;2023-08-24T05:53:56;15.48;;;9.82;;
20880;SDS011;10600;53.096;8.802;2023-08-24T05:54:59;13.02;;;8.98;;
20880;SDS011;10600;53.096;8.802;2023-08-24T05:56:00;11.80;;;9.02;;
20880;SDS011;10600;53.096;8.802;2023-08-24T05:57:01;16.08;;;9.82;;
20880;SDS011;10600;53.096;8.802;2023-08-24T05:58:04;14.13;;;9.20;;
20880;SDS011;10600;53.096;8.802;2023-08-24T05:59:14;18.52;;;10.40;;
20880;SDS011;10600;53.096;8.802;2023-08-24T06:00:28;15.15;;;9.77;;
20880;SDS011;10600;53.096;8.802;2023-08-24T06:01:39;12.70;;;9.05;;
20880;SDS011;10600;53.096;8.802;2023-08-24T06:02:41;12.80;;;9.15;;
20880;SDS011;10600;53.096;8.802;2023-08-24T06:03:42;13.48;;;8.80;;
20880;SDS011;10600;53.096;8.802;2023-08-24T06:04:43;13.23;;;9.07;;
20880;SDS011;10600;53.096;8.802;2023-08-24T06:05:44;14.27;;;8.63;;
20880;SDS011;10600;53.096;8.802;2023-08-24T06:06:46;18.38;;;10.38;;
20880;SDS011;10600;53.096;8.802;2023-08-24T06:07:47;17.80;;;12.00;;
20880;SDS011;10600;53.096;8.802;2023-08-24T06:08:49;23.50;;;13.68;;
20880;SDS011;10600;53.096;8.802;2023-08-24T06:09:50;20.33;;;12.90;;